WUK731Q LEBB-EGGW
Flight info
| Callsign | WUK731Q |
|---|---|
| Flight time | N/A |
| Altitude | 34000 |
| Route | BISKA P87 BELEN DCT DIDIG DCT MOKOR DCT OLEBA DCT ROGPU DCT DIKRO DCT ELDOP DCT LUGIS UM185 ADLOG/N0360F240 M185 TELTU |
| Aircraft | A21N/M-SDE1E2E3FGIJ1J4RWXY/LB1 |
Departure
| Time | 2026-04-30 13:57 |
|---|---|
| Airport | Bilbao Airport (LEBB) |
Arrival
| Time | N/A |
|---|---|
| Airport | London Luton Airport (EGGW) |
| Time | Latitude | Longitude | Altitude | Speed | Heading |
|---|---|---|---|---|---|
| 2026-04-30 13:46 | 43.30475 | -2.90891 | 133 ft | 0 kts | 357° |
| 2026-04-30 13:47 | 43.30472 | -2.90891 | 133 ft | 3 kts | 357° |
| 2026-04-30 13:47 | 43.30445 | -2.90889 | 133 ft | 4 kts | 357° |
| 2026-04-30 13:47 | 43.30421 | -2.90889 | 133 ft | 4 kts | 19° |
| 2026-04-30 13:48 | 43.30406 | -2.90909 | 133 ft | 4 kts | 76° |
| 2026-04-30 13:48 | 43.30403 | -2.90934 | 133 ft | 1 kts | 86° |
| 2026-04-30 13:48 | 43.30403 | -2.90939 | 133 ft | 0 kts | 86° |
| 2026-04-30 13:52 | 43.30404 | -2.90927 | 133 ft | 3 kts | 86° |
| 2026-04-30 13:52 | 43.30405 | -2.90889 | 133 ft | 5 kts | 86° |
| 2026-04-30 13:52 | 43.30408 | -2.90830 | 133 ft | 7 kts | 86° |
| 2026-04-30 13:53 | 43.30390 | -2.90754 | 133 ft | 10 kts | 118° |
| 2026-04-30 13:53 | 43.30356 | -2.90664 | 133 ft | 12 kts | 117° |
| 2026-04-30 13:53 | 43.30298 | -2.90576 | 133 ft | 14 kts | 146° |
| 2026-04-30 13:53 | 43.30205 | -2.90540 | 133 ft | 16 kts | 194° |
| 2026-04-30 13:54 | 43.30103 | -2.90535 | 133 ft | 18 kts | 127° |
| 2026-04-30 13:54 | 43.30038 | -2.90385 | 133 ft | 20 kts | 115° |
| 2026-04-30 13:54 | 43.29986 | -2.90207 | 133 ft | 21 kts | 116° |
| 2026-04-30 13:54 | 43.29920 | -2.90025 | 133 ft | 22 kts | 117° |
| 2026-04-30 13:55 | 43.29846 | -2.89828 | 133 ft | 24 kts | 116° |
| 2026-04-30 13:55 | 43.29780 | -2.89648 | 133 ft | 12 kts | 116° |
| 2026-04-30 13:55 | 43.29714 | -2.89591 | 133 ft | 14 kts | 204° |
| 2026-04-30 13:55 | 43.29649 | -2.89698 | 133 ft | 16 kts | 247° |
| 2026-04-30 13:56 | 43.29665 | -2.89846 | 133 ft | 18 kts | 295° |
| 2026-04-30 13:56 | 43.29807 | -2.90235 | 133 ft | 86 kts | 295° |
| 2026-04-30 13:56 | 43.30192 | -2.91279 | 164 ft | 153 kts | 295° |
| 2026-04-30 13:56 | 43.30659 | -2.92727 | 658 ft | 177 kts | 291° |
| 2026-04-30 13:57 | 43.31189 | -2.94308 | 1476 ft | 189 kts | 297° |
| 2026-04-30 13:57 | 43.31810 | -2.95951 | 2092 ft | 201 kts | 300° |
| 2026-04-30 13:57 | 43.32482 | -2.97702 | 2737 ft | 214 kts | 307° |
| 2026-04-30 13:57 | 43.33601 | -2.99188 | 3143 ft | 238 kts | 332° |
| 2026-04-30 13:58 | 43.35177 | -3.00066 | 3779 ft | 255 kts | 339° |
| 2026-04-30 13:58 | 43.38739 | -2.99735 | 5322 ft | 276 kts | 25° |
| 2026-04-30 13:58 | 43.40450 | -2.98568 | 6229 ft | 279 kts | 26° |
| 2026-04-30 13:59 | 43.42204 | -2.97392 | 7133 ft | 282 kts | 25° |
| 2026-04-30 13:59 | 43.43992 | -2.96237 | 8014 ft | 285 kts | 24° |
| 2026-04-30 13:59 | 43.45804 | -2.95091 | 8913 ft | 288 kts | 24° |
| 2026-04-30 13:59 | 43.47645 | -2.93946 | 9775 ft | 293 kts | 23° |
| 2026-04-30 14:00 | 43.49528 | -2.92798 | 10472 ft | 302 kts | 22° |
| 2026-04-30 14:00 | 43.53589 | -2.90331 | 11393 ft | 333 kts | 22° |
| 2026-04-30 14:00 | 43.55694 | -2.89059 | 12140 ft | 337 kts | 22° |
| 2026-04-30 14:01 | 43.57849 | -2.87750 | 12972 ft | 340 kts | 22° |
| 2026-04-30 14:01 | 43.60016 | -2.86428 | 13831 ft | 342 kts | 22° |
| 2026-04-30 14:01 | 43.62202 | -2.85080 | 14551 ft | 346 kts | 22° |
| 2026-04-30 14:01 | 43.64412 | -2.83725 | 15282 ft | 349 kts | 21° |
| 2026-04-30 14:02 | 43.66642 | -2.82366 | 16002 ft | 352 kts | 21° |
| 2026-04-30 14:02 | 43.68935 | -2.81135 | 16722 ft | 354 kts | 14° |
| 2026-04-30 14:02 | 43.71327 | -2.80312 | 17441 ft | 355 kts | 9° |
| 2026-04-30 14:02 | 43.73751 | -2.79577 | 18165 ft | 359 kts | 9° |
| 2026-04-30 14:03 | 43.76166 | -2.78831 | 18798 ft | 362 kts | 9° |
| 2026-04-30 14:03 | 43.78632 | -2.78043 | 19393 ft | 366 kts | 9° |
| 2026-04-30 14:03 | 43.81121 | -2.77237 | 19996 ft | 369 kts | 9° |
| 2026-04-30 14:03 | 43.83636 | -2.76420 | 20595 ft | 372 kts | 9° |
| 2026-04-30 14:04 | 43.86171 | -2.75594 | 21177 ft | 376 kts | 9° |
| 2026-04-30 14:04 | 43.88726 | -2.74758 | 21762 ft | 379 kts | 9° |
| 2026-04-30 14:04 | 43.91304 | -2.73937 | 22325 ft | 382 kts | 7° |
| 2026-04-30 14:04 | 43.93894 | -2.73316 | 22880 ft | 384 kts | 5° |
| 2026-04-30 14:05 | 43.96544 | -2.72735 | 23446 ft | 387 kts | 5° |
| 2026-04-30 14:05 | 43.99214 | -2.72154 | 23947 ft | 390 kts | 5° |
| 2026-04-30 14:05 | 44.01910 | -2.71564 | 24441 ft | 393 kts | 5° |
| 2026-04-30 14:05 | 44.04612 | -2.70970 | 24926 ft | 395 kts | 5° |
| 2026-04-30 14:06 | 44.07333 | -2.70372 | 25384 ft | 397 kts | 5° |
| 2026-04-30 14:06 | 44.12834 | -2.69163 | 26247 ft | 403 kts | 5° |
| 2026-04-30 14:07 | 44.18376 | -2.67936 | 27072 ft | 409 kts | 5° |
| 2026-04-30 14:07 | 44.21191 | -2.67303 | 27516 ft | 411 kts | 5° |
| 2026-04-30 14:07 | 44.24018 | -2.66666 | 27993 ft | 412 kts | 5° |
| 2026-04-30 14:08 | 44.29705 | -2.65392 | 28817 ft | 416 kts | 4° |
| 2026-04-30 14:08 | 44.32574 | -2.64754 | 29199 ft | 419 kts | 4° |
| 2026-04-30 14:08 | 44.38323 | -2.63476 | 29918 ft | 424 kts | 4° |
| 2026-04-30 14:09 | 44.41241 | -2.62830 | 30312 ft | 425 kts | 5° |
| 2026-04-30 14:09 | 44.44164 | -2.62171 | 30634 ft | 426 kts | 5° |
| 2026-04-30 14:09 | 44.50050 | -2.60840 | 31171 ft | 431 kts | 5° |
| 2026-04-30 14:10 | 44.53015 | -2.60168 | 31487 ft | 432 kts | 5° |
| 2026-04-30 14:10 | 44.55982 | -2.59496 | 31806 ft | 432 kts | 5° |
| 2026-04-30 14:10 | 44.58954 | -2.58826 | 32138 ft | 433 kts | 6° |
| 2026-04-30 14:10 | 44.61890 | -2.58169 | 32436 ft | 433 kts | 7° |
| 2026-04-30 14:11 | 44.64861 | -2.57505 | 32750 ft | 433 kts | 6° |
| 2026-04-30 14:11 | 44.67841 | -2.56837 | 33042 ft | 434 kts | 6° |
| 2026-04-30 14:11 | 44.70827 | -2.56162 | 33353 ft | 434 kts | 6° |
| 2026-04-30 14:11 | 44.73805 | -2.55491 | 33652 ft | 434 kts | 6° |
| 2026-04-30 14:12 | 44.76788 | -2.54813 | 33932 ft | 434 kts | 6° |
| 2026-04-30 14:12 | 44.79769 | -2.54134 | 34125 ft | 435 kts | 6° |
| 2026-04-30 14:12 | 44.82755 | -2.53453 | 34148 ft | 434 kts | 6° |
| 2026-04-30 14:13 | 44.88671 | -2.52105 | 34114 ft | 434 kts | 6° |
| 2026-04-30 14:13 | 44.94631 | -2.50753 | 34106 ft | 434 kts | 6° |
| 2026-04-30 14:14 | 45.00576 | -2.49395 | 34107 ft | 432 kts | 7° |
| 2026-04-30 14:14 | 45.06464 | -2.48057 | 34107 ft | 431 kts | 7° |
| 2026-04-30 14:15 | 45.12385 | -2.46687 | 34105 ft | 431 kts | 7° |
| 2026-04-30 14:15 | 45.18311 | -2.45323 | 34105 ft | 431 kts | 7° |
| 2026-04-30 14:16 | 45.24235 | -2.43947 | 34101 ft | 431 kts | 7° |
| 2026-04-30 14:16 | 45.30155 | -2.42562 | 34100 ft | 431 kts | 7° |
| 2026-04-30 14:17 | 45.36038 | -2.41204 | 34103 ft | 431 kts | 7° |
| 2026-04-30 14:17 | 45.41963 | -2.39837 | 34100 ft | 431 kts | 8° |
| 2026-04-30 14:18 | 45.47888 | -2.38462 | 34098 ft | 431 kts | 8° |
| 2026-04-30 14:18 | 45.56738 | -2.36412 | 34097 ft | 431 kts | 8° |
| 2026-04-30 14:19 | 45.65622 | -2.34328 | 34096 ft | 432 kts | 8° |
| 2026-04-30 14:20 | 45.71569 | -2.32935 | 34095 ft | 434 kts | 8° |
| 2026-04-30 14:20 | 45.80493 | -2.30836 | 34091 ft | 438 kts | 9° |
| 2026-04-30 14:21 | 45.86522 | -2.29418 | 34094 ft | 439 kts | 9° |
| 2026-04-30 14:22 | 45.95566 | -2.27284 | 34084 ft | 440 kts | 9° |
| 2026-04-30 14:22 | 46.04675 | -2.25126 | 34086 ft | 443 kts | 9° |
| 2026-04-30 14:23 | 46.16794 | -2.22174 | 34080 ft | 444 kts | 10° |
| 2026-04-30 14:24 | 46.25966 | -2.19936 | 34085 ft | 446 kts | 10° |
| 2026-04-30 14:25 | 46.38160 | -2.16943 | 34080 ft | 446 kts | 11° |
| 2026-04-30 14:26 | 46.47345 | -2.14689 | 34079 ft | 447 kts | 10° |
| 2026-04-30 14:27 | 46.56501 | -2.12418 | 34068 ft | 447 kts | 11° |
| 2026-04-30 14:27 | 46.62653 | -2.10909 | 34072 ft | 449 kts | 11° |
| 2026-04-30 14:28 | 46.71891 | -2.08612 | 34073 ft | 449 kts | 11° |
| 2026-04-30 14:28 | 46.78052 | -2.07068 | 34072 ft | 449 kts | 11° |
| 2026-04-30 14:29 | 46.89295 | -2.04258 | 34068 ft | 449 kts | 11° |
| 2026-04-30 14:31 | 47.04779 | -1.97002 | 34064 ft | 437 kts | 40° |
| 2026-04-30 14:31 | 47.11966 | -1.88882 | 34073 ft | 437 kts | 40° |
| 2026-04-30 14:32 | 47.17229 | -1.84408 | 34060 ft | 444 kts | 20° |
| 2026-04-30 14:32 | 47.20233 | -1.83347 | 34071 ft | 445 kts | 13° |
| 2026-04-30 14:33 | 47.26329 | -1.81725 | 34070 ft | 445 kts | 12° |
| 2026-04-30 14:33 | 47.35404 | -1.79143 | 34075 ft | 445 kts | 13° |
| 2026-04-30 14:34 | 47.41477 | -1.77390 | 34069 ft | 445 kts | 12° |
| 2026-04-30 14:34 | 47.47545 | -1.75634 | 34060 ft | 445 kts | 12° |
| 2026-04-30 14:35 | 47.56615 | -1.73029 | 34066 ft | 445 kts | 12° |
| 2026-04-30 14:36 | 47.62703 | -1.71270 | 34066 ft | 447 kts | 12° |
| 2026-04-30 14:36 | 47.68814 | -1.69473 | 34059 ft | 448 kts | 12° |
| 2026-04-30 14:37 | 47.74932 | -1.67687 | 34054 ft | 448 kts | 12° |
| 2026-04-30 14:37 | 47.81015 | -1.65921 | 34059 ft | 448 kts | 13° |
| 2026-04-30 14:38 | 47.87137 | -1.64133 | 34059 ft | 448 kts | 13° |
| 2026-04-30 14:38 | 47.93252 | -1.62337 | 34052 ft | 448 kts | 13° |
| 2026-04-30 14:39 | 47.99370 | -1.60518 | 34049 ft | 448 kts | 13° |
| 2026-04-30 14:39 | 48.05450 | -1.58725 | 34055 ft | 449 kts | 13° |
| 2026-04-30 14:40 | 48.14636 | -1.55995 | 34065 ft | 449 kts | 13° |
| 2026-04-30 14:40 | 48.20758 | -1.54183 | 34069 ft | 449 kts | 13° |
| 2026-04-30 14:41 | 48.26847 | -1.52380 | 34070 ft | 449 kts | 13° |
| 2026-04-30 14:41 | 48.32974 | -1.50539 | 34064 ft | 449 kts | 13° |
| 2026-04-30 14:42 | 48.39108 | -1.48701 | 34069 ft | 449 kts | 13° |
| 2026-04-30 14:42 | 48.45235 | -1.46848 | 34056 ft | 449 kts | 13° |
| 2026-04-30 14:43 | 48.51326 | -1.45028 | 34070 ft | 449 kts | 13° |
| 2026-04-30 14:43 | 48.57457 | -1.43175 | 34072 ft | 449 kts | 13° |
| 2026-04-30 14:44 | 48.63582 | -1.41307 | 34070 ft | 449 kts | 13° |
| 2026-04-30 14:44 | 48.69710 | -1.39428 | 34071 ft | 449 kts | 13° |
| 2026-04-30 14:45 | 48.75784 | -1.37523 | 34070 ft | 449 kts | 14° |
| 2026-04-30 14:45 | 48.81901 | -1.35599 | 34071 ft | 449 kts | 13° |
| 2026-04-30 14:46 | 48.88014 | -1.33677 | 34077 ft | 449 kts | 13° |
| 2026-04-30 14:46 | 48.93097 | -1.32071 | 34076 ft | 449 kts | 13° |
| 2026-04-30 14:47 | 49.00172 | -1.29822 | 34073 ft | 445 kts | 13° |
| 2026-04-30 14:47 | 49.06242 | -1.27897 | 34074 ft | 446 kts | 13° |
| 2026-04-30 14:48 | 49.12300 | -1.25964 | 34073 ft | 444 kts | 13° |
| 2026-04-30 14:48 | 49.18353 | -1.24029 | 34077 ft | 444 kts | 13° |
| 2026-04-30 14:49 | 49.24361 | -1.22103 | 34078 ft | 444 kts | 13° |
| 2026-04-30 14:49 | 49.30408 | -1.20131 | 34082 ft | 444 kts | 13° |
| 2026-04-30 14:50 | 49.39486 | -1.17206 | 34088 ft | 444 kts | 13° |
| 2026-04-30 14:51 | 49.48525 | -1.14308 | 34098 ft | 444 kts | 13° |
| 2026-04-30 14:52 | 49.57559 | -1.11063 | 34095 ft | 444 kts | 22° |
| 2026-04-30 14:52 | 49.62753 | -1.06091 | 34112 ft | 440 kts | 39° |
| 2026-04-30 14:52 | 49.65155 | -1.03185 | 34110 ft | 439 kts | 40° |
| 2026-04-30 14:53 | 49.72369 | -0.94536 | 34106 ft | 440 kts | 39° |
| 2026-04-30 14:54 | 49.77864 | -0.90394 | 34103 ft | 446 kts | 14° |
| 2026-04-30 14:54 | 49.84074 | -0.89374 | 34115 ft | 450 kts | 6° |
| 2026-04-30 14:55 | 49.93385 | -0.88152 | 34116 ft | 450 kts | 7° |
| 2026-04-30 14:55 | 49.99621 | -0.87272 | 33996 ft | 449 kts | 7° |
| 2026-04-30 14:56 | 50.05722 | -0.86407 | 33141 ft | 433 kts | 7° |
| 2026-04-30 14:56 | 50.11662 | -0.85565 | 32060 ft | 426 kts | 7° |
| 2026-04-30 14:57 | 50.14605 | -0.85154 | 31509 ft | 424 kts | 8° |
| 2026-04-30 14:57 | 50.20417 | -0.84321 | 30472 ft | 420 kts | 8° |
| 2026-04-30 14:58 | 50.26216 | -0.83475 | 29324 ft | 417 kts | 8° |
| 2026-04-30 14:58 | 50.29099 | -0.83054 | 28771 ft | 415 kts | 8° |
| 2026-04-30 14:58 | 50.34803 | -0.82235 | 27747 ft | 409 kts | 9° |
| 2026-04-30 14:59 | 50.40399 | -0.81415 | 26733 ft | 405 kts | 9° |
| 2026-04-30 15:00 | 50.48705 | -0.80218 | 25259 ft | 399 kts | 9° |
| 2026-04-30 15:00 | 50.54221 | -0.79418 | 24254 ft | 398 kts | 9° |
| 2026-04-30 15:01 | 50.59717 | -0.78622 | 23183 ft | 396 kts | 9° |
| 2026-04-30 15:01 | 50.61525 | -0.78365 | 22822 ft | 395 kts | 9° |
| 2026-04-30 15:01 | 50.67842 | -0.77466 | 21580 ft | 388 kts | 8° |
| 2026-04-30 15:02 | 50.70514 | -0.77070 | 21079 ft | 383 kts | 9° |
| 2026-04-30 15:02 | 50.73153 | -0.76670 | 20602 ft | 379 kts | 8° |
| 2026-04-30 15:03 | 50.80883 | -0.75445 | 19238 ft | 366 kts | 14° |
| 2026-04-30 15:03 | 50.84583 | -0.73338 | 18734 ft | 350 kts | 26° |
| 2026-04-30 15:04 | 50.89019 | -0.70416 | 18204 ft | 344 kts | 25° |
| 2026-04-30 15:04 | 50.95591 | -0.66152 | 17416 ft | 339 kts | 25° |
| 2026-04-30 15:05 | 51.02109 | -0.61943 | 16666 ft | 335 kts | 26° |
| 2026-04-30 15:06 | 51.06405 | -0.59161 | 16166 ft | 332 kts | 26° |
| 2026-04-30 15:06 | 51.10630 | -0.56409 | 15679 ft | 329 kts | 26° |
| 2026-04-30 15:07 | 51.14852 | -0.53653 | 15208 ft | 327 kts | 26° |
| 2026-04-30 15:07 | 51.19052 | -0.50901 | 15157 ft | 327 kts | 26° |
| 2026-04-30 15:08 | 51.22476 | -0.48665 | 15176 ft | 327 kts | 26° |
| 2026-04-30 15:08 | 51.28770 | -0.44503 | 15185 ft | 327 kts | 26° |
| 2026-04-30 15:09 | 51.33652 | -0.41272 | 15203 ft | 327 kts | 26° |
| 2026-04-30 15:09 | 51.37847 | -0.38506 | 15200 ft | 326 kts | 26° |
| 2026-04-30 15:10 | 51.41331 | -0.36209 | 15205 ft | 326 kts | 26° |
| 2026-04-30 15:11 | 51.49536 | -0.30229 | 14567 ft | 321 kts | 29° |
| 2026-04-30 15:11 | 51.53554 | -0.27159 | 14110 ft | 318 kts | 30° |
| 2026-04-30 15:12 | 51.59495 | -0.22593 | 13465 ft | 316 kts | 29° |
| 2026-04-30 15:13 | 51.63447 | -0.19561 | 12965 ft | 314 kts | 29° |
| 2026-04-30 15:14 | 51.71920 | -0.16256 | 11986 ft | 318 kts | 11° |
| 2026-04-30 15:14 | 51.78475 | -0.14818 | 10978 ft | 315 kts | 11° |
| 2026-04-30 15:16 | 51.89147 | -0.12504 | 8863 ft | 305 kts | 11° |
| 2026-04-30 15:17 | 51.96873 | -0.13377 | 7684 ft | 304 kts | 351° |
| 2026-04-30 15:18 | 52.05267 | -0.21181 | 6457 ft | 290 kts | 284° |
| 2026-04-30 15:19 | 52.04058 | -0.29967 | 5742 ft | 269 kts | 230° |